Time;durP1;ratioP1;P1;durP2;ratioP2;P2;SDS_P1;SDS_P2;PMS_P1;PMS_P2;Temp;Humidity;BMP_temperature;BMP_pressure;BME280_temperature;BME280_humidity;BME280_pressure;Samples;Min_cycle;Max_cycle;Signal;HPM_P1;HPM_P2
2022/10/23 00:00:29;;;;;;;13.43;8.70;;;;;;;;;;5098439;28;20032;-69
2022/10/23 00:02:55;;;;;;;13.70;8.83;;;;;;;;;;5099994;28;20419;-70
2022/10/23 00:05:21;;;;;;;13.25;8.82;;;;;;;;;;5096456;28;20028;-70
2022/10/23 00:07:53;;;;;;;15.35;8.07;;;;;;;;;;5098291;28;20028;-70
2022/10/23 00:10:19;;;;;;;13.02;7.95;;;;;;;;;;5100250;28;20034;-69
2022/10/23 00:12:45;;;;;;;12.50;8.45;;;;;;;;;;5097226;28;20024;-69
2022/10/23 00:15:11;;;;;;;12.65;8.07;;;;;;;;;;5095831;28;20049;-70
2022/10/23 00:17:37;;;;;;;13.15;8.30;;;;;;;;;;5097845;28;20513;-70
2022/10/23 00:20:02;;;;;;;13.02;8.55;;;;;;;;;;5099021;28;20448;-69
2022/10/23 00:22:28;;;;;;;11.85;8.07;;;;;;;;;;5098638;28;20039;-69
2022/10/23 00:24:53;;;;;;;13.17;8.20;;;;;;;;;;5118634;27;20684;-70
2022/10/23 00:27:18;;;;;;;13.43;8.33;;;;;;;;;;5118265;27;20376;-69
2022/10/23 00:29:44;;;;;;;12.57;8.30;;;;;;;;;;5107531;27;20122;-69
2022/10/23 00:32:09;;;;;;;12.93;8.10;;;;;;;;;;5122385;27;20438;-70
2022/10/23 00:34:34;;;;;;;14.88;8.20;;;;;;;;;;5120379;27;20127;-70
2022/10/23 00:37:00;;;;;;;18.67;8.57;;;;;;;;;;5123217;27;20019;-70
2022/10/23 00:39:25;;;;;;;13.10;7.63;;;;;;;;;;5120515;27;20272;-70
2022/10/23 00:41:50;;;;;;;11.30;7.77;;;;;;;;;;5119461;27;20359;-70
2022/10/23 00:44:18;;;;;;;11.50;7.60;;;;;;;;;;5119904;27;20031;-70
2022/10/23 00:46:45;;;;;;;11.93;7.70;;;;;;;;;;5120314;27;20376;-70
2022/10/23 00:49:10;;;;;;;14.27;7.50;;;;;;;;;;5116042;27;20111;-70
2022/10/23 00:51:38;;;;;;;11.98;7.78;;;;;;;;;;5124921;27;20445;-70
2022/10/23 00:54:03;;;;;;;13.50;7.93;;;;;;;;;;5126183;27;20030;-71
2022/10/23 00:56:30;;;;;;;13.85;8.23;;;;;;;;;;5116426;27;20023;-70
2022/10/23 00:58:55;;;;;;;12.68;8.02;;;;;;;;;;5120434;27;20027;-73
2022/10/23 01:01:21;;;;;;;14.97;8.23;;;;;;;;;;5126707;27;20046;-71
2022/10/23 01:03:47;;;;;;;14.52;8.25;;;;;;;;;;5126218;27;20283;-71
2022/10/23 01:06:34;;;;;;;13.00;8.07;;;;;;;;;;5104134;27;20102;-70
2022/10/23 01:09:05;;;;;;;14.00;8.35;;;;;;;;;;5124817;27;20396;-70
2022/10/23 01:11:42;;;;;;;13.75;8.73;;;;;;;;;;5117689;27;20020;-70
2022/10/23 01:14:25;;;;;;;12.45;8.23;;;;;;;;;;5120866;27;20438;-71
2022/10/23 01:17:04;;;;;;;15.80;9.18;;;;;;;;;;5115055;27;20080;-70
2022/10/23 01:19:30;;;;;;;;;;;;;;;;;;5120400;27;20457;-71
2022/10/23 01:22:04;;;;;;;16.27;9.02;;;;;;;;;;5099799;27;19916;-72
2022/10/23 01:24:38;;;;;;;14.65;9.02;;;;;;;;;;5105784;27;20039;-71
2022/10/23 01:27:29;;;;;;;16.25;8.90;;;;;;;;;;5114160;27;20020;-71
2022/10/23 01:30:05;;;;;;;12.65;8.45;;;;;;;;;;5096018;27;20042;-70
2022/10/23 01:32:49;;;;;;;13.02;8.60;;;;;;;;;;5120506;27;20298;-70
2022/10/23 01:35:19;;;;;;;12.85;8.43;;;;;;;;;;5121143;27;20027;-72
2022/10/23 01:37:48;;;;;;;14.07;9.10;;;;;;;;;;5114181;27;20023;-71
2022/10/23 01:40:22;;;;;;;14.83;8.50;;;;;;;;;;5124238;27;20032;-71
2022/10/23 01:42:51;;;;;;;14.70;9.10;;;;;;;;;;5118927;27;20019;-71
2022/10/23 01:45:31;;;;;;;19.90;11.80;;;;;;;;;;5111986;27;20508;-71
2022/10/23 01:47:56;;;;;;;21.20;13.98;;;;;;;;;;5119331;27;20485;-71
2022/10/23 01:50:23;;;;;;;22.17;12.95;;;;;;;;;;5099990;27;20023;-71
2022/10/23 01:52:48;;;;;;;20.08;13.18;;;;;;;;;;5116807;27;21720;-71
2022/10/23 01:55:14;;;;;;;19.52;12.95;;;;;;;;;;5124735;27;20040;-71
2022/10/23 01:57:41;;;;;;;19.15;12.32;;;;;;;;;;5104447;27;20358;-71
2022/10/23 02:00:13;;;;;;;19.63;11.27;;;;;;;;;;5098801;28;20138;-71
2022/10/23 02:02:39;;;;;;;16.48;11.02;;;;;;;;;;5125985;27;20185;-70
2022/10/23 02:05:13;;;;;;;16.95;10.25;;;;;;;;;;5119076;27;20023;-70
2022/10/23 02:07:39;;;;;;;15.98;9.25;;;;;;;;;;5116880;27;20384;-71
2022/10/23 02:10:05;;;;;;;14.40;8.55;;;;;;;;;;5118780;27;20031;-70
2022/10/23 02:12:36;;;;;;;16.23;8.98;;;;;;;;;;5124527;27;20035;-70
2022/10/23 02:15:22;;;;;;;12.57;8.30;;;;;;;;;;5098767;27;20038;-71
2022/10/23 02:17:57;;;;;;;17.02;9.07;;;;;;;;;;5085107;28;20438;-71
2022/10/23 02:20:28;;;;;;;13.25;7.88;;;;;;;;;;5099999;27;20061;-71
2022/10/23 02:23:13;;;;;;;20.17;9.27;;;;;;;;;;5117308;27;20031;-71
2022/10/23 02:25:44;;;;;;;13.70;8.27;;;;;;;;;;5116836;27;20090;-71
2022/10/23 02:28:13;;;;;;;15.88;9.00;;;;;;;;;;5118903;27;20038;-71
2022/10/23 02:30:39;;;;;;;;;;;;;;;;;;5116166;27;20019;-71
2022/10/23 02:33:04;;;;;;;13.38;8.65;;;;;;;;;;5115996;27;20040;-71
2022/10/23 02:35:30;;;;;;;15.75;8.77;;;;;;;;;;5098852;28;20063;-71
2022/10/23 02:37:56;;;;;;;13.07;8.90;;;;;;;;;;5118010;27;20027;-71
2022/10/23 02:40:22;;;;;;;14.40;8.60;;;;;;;;;;5102967;27;20023;-71
2022/10/23 02:42:48;;;;;;;15.25;9.60;;;;;;;;;;5121742;27;20042;-71
2022/10/23 02:45:16;;;;;;;14.87;9.47;;;;;;;;;;5116168;27;20481;-71
2022/10/23 02:48:00;;;;;;;16.38;9.30;;;;;;;;;;5114110;27;20030;-70
2022/10/23 02:50:40;;;;;;;14.70;9.13;;;;;;;;;;5097815;28;20023;-70
2022/10/23 02:53:11;;;;;;;13.57;8.65;;;;;;;;;;5118393;27;20037;-71
2022/10/23 02:55:42;;;;;;;15.02;9.02;;;;;;;;;;5117787;27;20106;-71
2022/10/23 02:58:09;;;;;;;13.40;9.02;;;;;;;;;;5115984;27;20034;-70
2022/10/23 03:00:37;;;;;;;13.43;8.75;;;;;;;;;;5115574;27;20078;-71
2022/10/23 03:03:10;;;;;;;14.32;8.82;;;;;;;;;;5115760;27;20031;-70
2022/10/23 03:05:37;;;;;;;13.60;8.55;;;;;;;;;;5113259;27;20026;-71
2022/10/23 03:08:04;;;;;;;15.93;9.38;;;;;;;11.05;nan;101190.63;5117676;27;20072;-70
2022/10/23 03:10:29;;;;;;;14.85;9.57;;;;;;;;;;5115543;27;20031;-70
2022/10/23 03:12:54;;;;;;;11.95;8.18;;;;;;;;;;5116819;27;20028;-70
2022/10/23 03:15:20;;;;;;;11.90;7.83;;;;;;;;;;5116086;27;20067;-70
2022/10/23 03:17:45;;;;;;;13.80;8.63;;;;;;;;;;5116060;27;20034;-70
2022/10/23 03:20:11;;;;;;;13.37;8.47;;;;;;;11.11;nan;101226.72;5113300;27;20035;-70
2022/10/23 03:22:36;;;;;;;13.80;8.70;;;;;;;;;;5120380;28;20285;-69
2022/10/23 03:25:02;;;;;;;15.98;9.40;;;;;;;;;;5116189;28;20051;-70
2022/10/23 03:27:27;;;;;;;16.85;9.93;;;;;;;;;;5113319;27;20122;-70
2022/10/23 03:29:52;;;;;;;20.10;9.90;;;;;;;;;;5110971;27;20512;-71
2022/10/23 03:32:17;;;;;;;16.23;9.67;;;;;;;;;;5112982;27;20275;-71
2022/10/23 03:34:43;;;;;;;15.87;9.07;;;;;;;;;;5119343;28;20061;-71
2022/10/23 03:37:08;;;;;;;16.57;10.40;;;;;;;;;;5115178;28;20084;-71
2022/10/23 03:39:33;;;;;;;17.48;10.45;;;;;;;;;;5117728;27;20241;-70
2022/10/23 03:41:58;;;;;;;16.53;9.60;;;;;;;;;;5116848;28;20457;-71
2022/10/23 03:44:24;;;;;;;14.73;9.43;;;;;;;;;;5117848;27;20282;-71
2022/10/23 03:46:49;;;;;;;14.47;9.13;;;;;;;;;;5101998;28;20084;-71
2022/10/23 03:49:14;;;;;;;16.03;9.70;;;;;;;;;;5113758;27;20704;-71
2022/10/23 03:51:40;;;;;;;18.88;10.10;;;;;;;;;;5117241;28;20276;-71
2022/10/23 03:54:06;;;;;;;14.30;8.93;;;;;;;;;;5116309;28;20091;-71
2022/10/23 03:56:31;;;;;;;14.10;8.93;;;;;;;;;;5115612;27;20032;-71
2022/10/23 03:58:56;;;;;;;16.67;9.37;;;;;;;;;;5116125;27;20024;-71
2022/10/23 04:01:21;;;;;;;20.87;10.17;;;;;;;;;;5105084;28;20695;-71
2022/10/23 04:03:47;;;;;;;17.60;9.33;;;;;;;;;;5117055;27;20491;-71
2022/10/23 04:06:12;;;;;;;18.43;10.30;;;;;;;;;;5121811;27;20385;-70
2022/10/23 04:08:37;;;;;;;18.77;10.52;;;;;;;;;;5118310;27;20461;-71
2022/10/23 04:11:03;;;;;;;20.85;11.55;;;;;;;;;;5119894;27;20031;-71
2022/10/23 04:13:28;;;;;;;18.20;11.13;;;;;;;;;;5117473;27;20492;-71
2022/10/23 04:15:53;;;;;;;20.40;10.83;;;;;;;;;;5125697;27;20071;-70
2022/10/23 04:18:19;;;;;;;19.50;11.27;;;;;;;;;;5117589;27;20051;-71
2022/10/23 04:20:48;;;;;;;23.75;11.23;;;;;;;;;;5120053;27;20030;-70
2022/10/23 04:23:13;;;;;;;;;;;;;;;;;;5120454;27;20052;-71
2022/10/23 04:25:38;;;;;;;18.60;11.55;;;;;;;;;;5127355;27;19918;-71
2022/10/23 04:28:04;;;;;;;17.50;11.10;;;;;;;;;;5117075;27;20035;-71
2022/10/23 04:30:29;;;;;;;20.13;11.57;;;;;;;;;;5121371;27;20027;-71
2022/10/23 04:32:54;;;;;;;18.43;11.87;;;;;;;;;;5120446;27;20023;-70
2022/10/23 04:35:20;;;;;;;18.83;11.77;;;;;;;;;;5107058;27;20267;-71
2022/10/23 04:37:45;;;;;;;19.97;11.47;;;;;;;;;;5119888;27;20023;-71
2022/10/23 04:40:10;;;;;;;19.63;11.57;;;;;;;;;;5122500;27;20661;-71
2022/10/23 04:42:36;;;;;;;18.33;11.40;;;;;;;;;;5118016;27;20264;-71
2022/10/23 04:45:01;;;;;;;21.58;12.65;;;;;;;;;;5122171;27;20365;-71
2022/10/23 04:47:26;;;;;;;20.93;12.63;;;;;;;;;;5119611;27;20057;-71
2022/10/23 04:49:51;;;;;;;22.93;12.83;;;;;;;;;;5119775;27;20264;-71
2022/10/23 04:52:16;;;;;;;18.67;12.17;;;;;;;;;;5118161;27;20431;-71
2022/10/23 04:54:42;;;;;;;19.87;11.17;;;;;;;;;;5125134;27;20035;-71
2022/10/23 04:57:07;;;;;;;19.60;12.07;;;;;;;;;;5104699;28;20355;-71
2022/10/23 04:59:32;;;;;;;18.40;11.68;;;;;;;;;;5115343;27;20625;-71
2022/10/23 05:01:58;;;;;;;19.17;11.73;;;;;;;;;;5104348;27;20098;-71
2022/10/23 05:04:23;;;;;;;18.37;11.67;;;;;;;;;;5117744;27;20761;-71
2022/10/23 05:06:48;;;;;;;19.95;11.60;;;;;;;;;;5117901;27;20513;-71
2022/10/23 05:09:13;;;;;;;19.85;11.65;;;;;;;;;;5114933;27;20372;-73
2022/10/23 05:11:39;;;;;;;20.80;11.70;;;;;;;;;;5120944;27;20381;-72
2022/10/23 05:14:04;;;;;;;20.03;12.33;;;;;;;;;;5119688;27;20156;-71
2022/10/23 05:16:41;;;;;;;1999.90;999.90;;;;;;;;;;5116441;27;20027;-71
2022/10/23 05:19:08;;;;;;;60.05;31.33;;;;;;;;;;5116705;27;20052;-72
2022/10/23 05:21:34;;;;;;;59.97;24.65;;;;;;;;;;5119581;27;20027;-71
2022/10/23 05:24:00;;;;;;;36.38;16.70;;;;;;;;;;5120644;27;20579;-71
2022/10/23 05:26:26;;;;;;;26.15;14.07;;;;;;;;;;5117842;27;20073;-72
2022/10/23 05:28:51;;;;;;;23.20;12.65;;;;;;;;;;5118297;27;20031;-71
2022/10/23 05:31:17;;;;;;;20.57;12.60;;;;;;;;;;5099117;28;20063;-72
2022/10/23 05:33:42;;;;;;;20.75;12.52;;;;;;;;;;5111732;27;20056;-71
2022/10/23 05:36:08;;;;;;;22.53;12.83;;;;;;;;;;5119202;27;20031;-72
2022/10/23 05:38:34;;;;;;;21.15;13.13;;;;;;;;;;5122071;27;20031;-72
2022/10/23 05:40:59;;;;;;;21.70;14.90;;;;;;;;;;5119836;27;20022;-73
2022/10/23 05:43:26;;;;;;;21.73;13.10;;;;;;;;;;5114612;27;20044;-72
2022/10/23 05:45:51;;;;;;;24.55;14.13;;;;;;;;;;5118750;27;20071;-71
2022/10/23 05:48:16;;;;;;;24.70;13.73;;;;;;;;;;5116418;27;20023;-72
2022/10/23 05:50:42;;;;;;;20.97;12.53;;;;;;;;;;5119817;27;20171;-72
2022/10/23 05:53:09;;;;;;;23.58;12.70;;;;;;;;;;5123342;27;20057;-71
2022/10/23 05:55:34;;;;;;;23.30;12.20;;;;;;;;;;5099819;27;20274;-71
2022/10/23 05:58:00;;;;;;;19.87;12.47;;;;;;;;;;5117152;27;20543;-71
2022/10/23 06:00:26;;;;;;;19.08;12.32;;;;;;;;;;5121543;27;20035;-71
2022/10/23 06:02:51;;;;;;;22.10;12.90;;;;;;;;;;5117227;27;20488;-72
2022/10/23 06:05:16;;;;;;;19.77;12.40;;;;;;;;;;5123039;27;20267;-71
2022/10/23 06:07:42;;;;;;;20.97;12.50;;;;;;;;;;5105163;28;20031;-71
2022/10/23 06:10:07;;;;;;;18.45;11.98;;;;;;;;;;5120647;27;20031;-71
2022/10/23 06:12:32;;;;;;;21.20;12.52;;;;;;;;;;5123797;27;20078;-72
2022/10/23 06:14:58;;;;;;;19.00;12.13;;;;;;;;;;5116192;27;20023;-71
2022/10/23 06:17:23;;;;;;;21.55;13.55;;;;;;;;;;5119080;27;20310;-71
2022/10/23 06:19:48;;;;;;;21.67;14.18;;;;;;;;;;5117896;27;20366;-71
2022/10/23 06:22:13;;;;;;;24.50;13.53;;;;;;;;;;5118414;27;20027;-70
2022/10/23 06:24:39;;;;;;;21.20;12.43;;;;;;;;;;5119399;27;20052;-70
2022/10/23 06:27:04;;;;;;;21.00;13.07;;;;;;;;;;5096190;27;20390;-70
2022/10/23 06:29:29;;;;;;;22.13;13.70;;;;;;;;;;5097619;27;20290;-70
2022/10/23 06:31:54;;;;;;;20.20;13.23;;;;;;;;;;5117112;27;20043;-70
2022/10/23 06:34:20;;;;;;;25.00;13.97;;;;;;;;;;5121241;27;20076;-69
2022/10/23 06:36:45;;;;;;;23.03;13.40;;;;;;;;;;5118088;27;20019;-70
2022/10/23 06:39:10;;;;;;;20.97;12.90;;;;;;;;;;5120590;27;20814;-69
2022/10/23 06:41:37;;;;;;;19.30;12.50;;;;;;;;;;5116682;27;20023;-70
2022/10/23 06:44:02;;;;;;;20.58;12.93;;;;;;;;;;5120133;27;20023;-70
2022/10/23 06:46:29;;;;;;;18.93;12.77;;;;;;;;;;5119374;27;20027;-69
2022/10/23 06:48:54;;;;;;;18.20;12.02;;;;;;;;;;5120278;27;20039;-69
2022/10/23 06:51:21;;;;;;;17.25;11.32;;;;;;;;;;5098656;27;20373;-70
2022/10/23 06:53:46;;;;;;;16.92;10.55;;;;;;;;;;5119454;27;20034;-69
2022/10/23 06:56:11;;;;;;;17.25;10.68;;;;;;;;;;5116739;27;20023;-70
2022/10/23 06:58:37;;;;;;;16.83;11.10;;;;;;;;;;5119599;27;20537;-70
2022/10/23 07:01:04;;;;;;;17.95;11.52;;;;;;;;;;5118230;27;20072;-69
2022/10/23 07:03:29;;;;;;;17.33;11.65;;;;;;;;;;5116596;27;20027;-70
2022/10/23 07:05:54;;;;;;;20.15;12.07;;;;;;;;;;5116249;28;20442;-69
2022/10/23 07:08:20;;;;;;;18.42;11.02;;;;;;;;;;5113207;27;20381;-69
2022/10/23 07:10:46;;;;;;;19.90;11.30;;;;;;;;;;5116014;27;20015;-70
2022/10/23 07:13:12;;;;;;;16.55;11.38;;;;;;;;;;5122321;27;20020;-68
2022/10/23 07:15:38;;;;;;;19.23;11.05;;;;;;;;;;5115490;27;20128;-70
2022/10/23 07:18:03;;;;;;;17.88;10.73;;;;;;;;;;5115616;27;20026;-70
2022/10/23 07:20:29;;;;;;;19.83;11.20;;;;;;;;;;5117273;27;20037;-67
2022/10/23 07:22:54;;;;;;;20.77;12.63;;;;;;;;;;5100630;28;20027;-69
2022/10/23 07:25:20;;;;;;;17.88;12.05;;;;;;;;;;5119042;28;20577;-69
2022/10/23 07:27:45;;;;;;;17.65;10.95;;;;;;;;;;5119152;28;20012;-69
2022/10/23 07:30:11;;;;;;;16.23;10.23;;;;;;;;;;5098709;27;20152;-68
2022/10/23 07:32:36;;;;;;;14.50;10.32;;;;;;;;;;5114294;27;20023;-69
2022/10/23 07:35:02;;;;;;;16.33;10.13;;;;;;;;;;5098813;27;20159;-71
2022/10/23 07:37:28;;;;;;;17.15;10.98;;;;;;;;;;5116116;27;20761;-69
2022/10/23 07:39:53;;;;;;;15.48;10.70;;;;;;;;;;5123372;27;20102;-68
2022/10/23 07:42:19;;;;;;;18.23;10.60;;;;;;;;;;5122498;27;20533;-69
2022/10/23 07:44:44;;;;;;;19.10;11.50;;;;;;;;;;5107413;27;20034;-70
2022/10/23 07:47:09;;;;;;;19.93;13.40;;;;;;;;;;5126823;27;20278;-67
2022/10/23 07:49:34;;;;;;;22.10;11.83;;;;;;;;;;5118770;27;20023;-68
2022/10/23 07:52:00;;;;;;;15.63;10.77;;;;;;;;;;5117558;27;20031;-69
2022/10/23 07:54:25;;;;;;;17.37;10.90;;;;;;;;;;5102939;27;20027;-68
2022/10/23 07:56:50;;;;;;;16.60;11.60;;;;;;;;;;5116828;27;20020;-69
2022/10/23 07:59:15;;;;;;;16.87;11.20;;;;;;;;;;5105870;27;20060;-70
2022/10/23 08:01:45;;;;;;;16.43;11.13;;;;;;;;;;5102335;27;20287;-69
2022/10/23 08:04:11;;;;;;;20.05;11.93;;;;;;;;;;5121707;27;20035;-70
2022/10/23 08:06:37;;;;;;;16.63;9.30;;;;;;;12.77;nan;101394.78;5120305;27;20030;-70
2022/10/23 08:09:02;;;;;;;17.73;10.60;;;;;;;;;;5121713;27;20032;-70
2022/10/23 08:11:34;;;;;;;16.67;10.48;;;;;;;;;;5122398;27;20027;-69
2022/10/23 08:13:59;;;;;;;15.18;10.48;;;;;;;;;;5121106;27;20023;-69
2022/10/23 08:16:24;;;;;;;15.80;10.75;;;;;;;;;;5117613;27;20024;-70
2022/10/23 08:18:50;;;;;;;17.27;10.85;;;;;;;;;;5104285;27;20065;-69
2022/10/23 08:21:16;;;;;;;17.58;10.45;;;;;;;;;;5121302;27;20026;-69
2022/10/23 08:23:41;;;;;;;14.27;9.85;;;;;;;;;;5118921;27;20404;-71
2022/10/23 08:26:06;;;;;;;14.82;9.85;;;;;;;;;;5118974;27;20073;-71
2022/10/23 08:28:32;;;;;;;15.27;9.80;;;;;;;;;;5103145;27;20023;-71
2022/10/23 08:30:57;;;;;;;15.43;10.50;;;;;;;;;;5125289;27;20015;-70
2022/10/23 08:33:23;;;;;;;17.48;10.10;;;;;;;;;;5122174;27;20518;-70
2022/10/23 08:35:48;;;;;;;15.52;10.57;;;;;;;;;;5119453;27;20549;-71
2022/10/23 08:38:14;;;;;;;15.60;10.48;;;;;;;;;;5126090;27;20023;-71
2022/10/23 08:40:42;;;;;;;14.37;10.13;;;;;;;;;;5127058;27;20034;-71
2022/10/23 08:43:10;;;;;;;17.30;10.55;;;;;;;;;;5120123;27;20264;-71
2022/10/23 08:45:36;;;;;;;15.70;10.45;;;;;;;;;;5118553;27;20507;-71
2022/10/23 08:48:05;;;;;;;16.37;11.10;;;;;;;;;;5119608;27;20027;-71
2022/10/23 08:50:41;;;;;;;18.17;11.55;;;;;;;;;;5112249;27;20272;-72
2022/10/23 08:53:13;;;;;;;25.50;15.68;;;;;;;;;;5107131;27;20089;-71
2022/10/23 08:55:41;;;;;;;36.72;19.30;;;;;;;;;;5119077;27;20023;-71
2022/10/23 08:58:30;;;;;;;36.30;20.10;;;;;;;;;;5117056;27;20034;-72
2022/10/23 09:00:56;;;;;;;36.25;19.73;;;;;;;;;;5119738;27;20035;-70
2022/10/23 09:03:21;;;;;;;38.50;21.08;;;;;;;;;;5098886;27;20135;-71
2022/10/23 09:05:46;;;;;;;48.75;24.92;;;;;;;;;;5119222;27;20023;-70
2022/10/23 09:08:12;;;;;;;45.20;23.43;;;;;;;;;;5119634;27;20076;-70
2022/10/23 09:10:40;;;;;;;48.03;25.07;;;;;;;;;;5101982;27;20450;-70
2022/10/23 09:13:21;;;;;;;53.70;26.98;;;;;;;;;;5123498;27;20020;-71
2022/10/23 09:15:50;;;;;;;52.88;26.90;;;;;;;;;;5119027;27;20488;-71
2022/10/23 09:18:15;;;;;;;54.22;27.48;;;;;;;;;;5118060;27;20073;-70
2022/10/23 09:20:42;;;;;;;52.92;26.27;;;;;;;;;;5121173;27;20062;-70
2022/10/23 09:23:15;;;;;;;49.58;25.55;;;;;;;;;;5121545;27;20557;-69
2022/10/23 09:25:41;;;;;;;52.97;25.75;;;;;;;;;;5117703;27;20039;-70
2022/10/23 09:28:14;;;;;;;48.83;25.15;;;;;;;;;;5119608;27;20525;-70
2022/10/23 09:30:41;;;;;;;50.90;25.00;;;;;;;;;;5115587;27;20469;-70
2022/10/23 09:33:20;;;;;;;45.72;23.17;;;;;;;;;;5117208;27;20031;-70
2022/10/23 09:35:54;;;;;;;45.30;24.75;;;;;;;;;;5118629;27;20114;-69
2022/10/23 09:38:27;;;;;;;40.05;21.52;;;;;;;;;;5100823;27;20035;-70
2022/10/23 09:40:52;;;;;;;36.30;20.10;;;;;;;;;;5122337;27;20032;-70
2022/10/23 09:43:22;;;;;;;38.28;21.58;;;;;;;;;;5123396;27;20030;-69
2022/10/23 09:45:55;;;;;;;34.38;19.63;;;;;;;;;;5117162;27;20080;-69
2022/10/23 09:48:20;;;;;;;36.90;20.35;;;;;;;;;;5116933;27;20028;-69
2022/10/23 09:50:56;;;;;;;33.33;19.80;;;;;;;;;;5101386;27;20023;-69
2022/10/23 09:53:26;;;;;;;32.78;19.27;;;;;;;;;;5119002;27;20089;-69
2022/10/23 09:55:52;;;;;;;34.17;19.63;;;;;;;;;;5122912;27;20027;-70
2022/10/23 09:58:19;;;;;;;35.22;18.95;;;;;;;;;;5115234;27;20023;-70
2022/10/23 10:00:45;;;;;;;33.30;19.45;;;;;;;;;;5119585;27;20023;-69
2022/10/23 10:03:21;;;;;;;35.80;20.30;;;;;;;;;;5102306;28;20397;-69
2022/10/23 10:05:53;;;;;;;33.72;20.55;;;;;;;;;;5104096;27;20023;-69
2022/10/23 10:08:30;;;;;;;36.90;20.40;;;;;;;;;;5117800;27;20043;-70
2022/10/23 10:11:14;;;;;;;35.13;19.35;;;;;;;;;;5098365;27;20396;-70
2022/10/23 10:13:48;;;;;;;36.47;20.98;;;;;;;;;;5114175;27;20119;-69
2022/10/23 10:16:26;;;;;;;37.53;20.63;;;;;;;;;;5099437;28;20031;-70
2022/10/23 10:18:51;;;;;;;32.70;19.30;;;;;;;;;;5117242;27;20054;-72
2022/10/23 10:21:19;;;;;;;33.17;19.17;;;;;;;;;;5112676;27;20449;-71
2022/10/23 10:23:49;;;;;;;37.37;21.00;;;;;;;;;;5100990;27;20086;-72
2022/10/23 10:26:33;;;;;;;38.15;21.20;;;;;;;;;;5094824;27;20031;-71
2022/10/23 10:29:04;;;;;;;38.47;20.88;;;;;;;;;;5117719;27;20019;-71
2022/10/23 10:31:35;;;;;;;40.55;22.58;;;;;;;;;;5096096;28;20384;-72
2022/10/23 10:34:03;;;;;;;38.70;22.05;;;;;;;;;;5102509;27;20084;-72
2022/10/23 10:36:31;;;;;;;33.78;18.73;;;;;;;;;;5117896;27;20507;-71
2022/10/23 10:39:02;;;;;;;25.17;15.13;;;;;;;;;;5119590;27;20511;-71
2022/10/23 10:42:05;;;;;;;29.30;15.60;;;;;;;;;;5120672;27;20027;-71
2022/10/23 10:44:31;;;;;;;28.60;15.98;;;;;;;;;;5041667;28;20086;-72
2022/10/23 10:47:05;;;;;;;25.70;15.37;;;;;;;;;;5037769;28;20119;-73
2022/10/23 10:49:35;;;;;;;23.13;12.30;;;;;;;;;;5042759;28;20048;-72
2022/10/23 10:52:08;;;;;;;15.93;10.20;;;;;;;;;;5032590;28;20026;-72
2022/10/23 10:54:34;;;;;;;17.50;10.73;;;;;;;;;;5041418;28;20021;-73
2022/10/23 10:57:01;;;;;;;16.40;9.80;;;;;;;;;;5038918;28;20047;-72
2022/10/23 10:59:30;;;;;;;12.18;8.85;;;;;;;;;;5022121;28;20029;-72
2022/10/23 11:01:56;;;;;;;13.80;9.00;;;;;;;;;;5039254;28;20445;-72
2022/10/23 11:04:28;;;;;;;13.07;8.90;;;;;;;;;;5023260;28;20021;-72
2022/10/23 11:06:54;;;;;;;13.50;8.80;;;;;;;;;;5023044;28;20040;-71
2022/10/23 11:09:20;;;;;;;14.02;9.02;;;;;;;;;;5037576;28;20042;-72
2022/10/23 11:11:47;;;;;;;13.68;8.68;;;;;;;;;;5021085;28;20033;-72
2022/10/23 11:14:21;;;;;;;11.80;8.35;;;;;;;;;;5043321;28;20128;-72
2022/10/23 11:17:01;;;;;;;13.70;8.43;;;;;;;;;;5116229;27;20020;-72
2022/10/23 11:19:34;;;;;;;13.93;8.60;;;;;;;;;;5105049;28;20023;-72
2022/10/23 11:22:02;;;;;;;11.15;7.20;;;;;;;;;;5115874;27;20027;-72
2022/10/23 11:24:51;;;;;;;12.88;8.23;;;;;;;;;;5104821;28;20075;-72
2022/10/23 11:27:16;;;;;;;10.67;7.80;;;;;;;;;;5112922;28;20031;-72
2022/10/23 11:29:44;;;;;;;12.77;8.17;;;;;;;;;;5095987;27;20294;-73
2022/10/23 11:32:28;;;;;;;11.77;7.85;;;;;;;;;;5120877;28;20030;-71
2022/10/23 11:35:03;;;;;;;10.80;8.02;;;;;;;;;;5114143;27;20016;-72
2022/10/23 11:37:29;;;;;;;11.68;7.55;;;;;;;;;;5116948;27;20027;-71
2022/10/23 11:40:03;;;;;;;12.30;7.05;;;;;;;;;;5107673;28;20035;-71
2022/10/23 11:42:29;;;;;;;10.57;7.20;;;;;;;;;;5099611;28;20031;-72
2022/10/23 11:44:55;;;;;;;10.57;7.35;;;;;;;;;;5120153;28;20493;-73
2022/10/23 11:47:47;;;;;;;10.57;7.55;;;;;;;;;;5100520;28;20023;-70
2022/10/23 11:50:13;;;;;;;9.68;7.03;;;;;;;;;;5101133;28;20063;-72
2022/10/23 11:52:50;;;;;;;11.05;6.88;;;;;;;;;;5119062;27;20034;-71
2022/10/23 11:55:26;;;;;;;9.57;6.70;;;;;;;;;;5095384;27;20488;-71
2022/10/23 11:58:03;;;;;;;8.93;6.93;;;;;;;;;;5117147;27;20821;-71
2022/10/23 12:00:29;;;;;;;10.27;7.10;;;;;;;;;;5113404;27;20111;-71
2022/10/23 12:02:55;;;;;;;8.50;6.32;;;;;;;;;;5098547;28;20119;-71
2022/10/23 12:05:26;;;;;;;7.97;6.10;;;;;;;;;;5099517;28;20102;-71
2022/10/23 12:07:56;;;;;;;9.40;6.60;;;;;;;;;;5099030;28;20023;-72
2022/10/23 12:10:25;;;;;;;7.43;5.78;;;;;;;;;;5120538;28;20489;-72
2022/10/23 12:12:50;;;;;;;;;;;;;;;;;;5113375;27;20040;-71
2022/10/23 12:15:18;;;;;;;10.15;6.13;;;;;;;;;;5111308;27;19911;-70
2022/10/23 12:17:43;;;;;;;8.07;6.22;;;;;;;;;;5096244;28;20023;-70
2022/10/23 12:20:12;;;;;;;8.77;6.20;;;;;;;;;;5101109;27;20020;-69
2022/10/23 12:22:40;;;;;;;8.25;6.10;;;;;;;;;;5116065;27;20054;-71
2022/10/23 12:25:15;;;;;;;8.20;5.90;;;;;;;;;;5112802;27;20481;-70
2022/10/23 12:27:45;;;;;;;7.68;5.75;;;;;;;;;;5112221;27;20047;-70
2022/10/23 12:30:10;;;;;;;8.35;5.38;;;;;;;;;;5097655;28;20825;-70
2022/10/23 12:32:54;;;;;;;8.17;6.17;;;;;;;;;;5098641;27;20122;-71
2022/10/23 12:35:22;;;;;;;8.95;6.03;;;;;;;;;;5099957;27;20019;-70
2022/10/23 12:38:08;;;;;;;8.18;6.22;;;;;;;;;;5118363;27;20469;-71
2022/10/23 12:40:33;;;;;;;8.88;5.95;;;;;;;;;;5117451;27;20047;-72
2022/10/23 12:42:59;;;;;;;10.33;6.20;;;;;;;;;;5115258;27;20031;-72
2022/10/23 12:45:29;;;;;;;8.77;5.93;;;;;;;;;;5099856;27;20480;-71
2022/10/23 12:47:54;;;;;;;8.13;5.40;;;;;;;;;;5094462;27;20034;-72
2022/10/23 12:50:22;;;;;;;7.00;5.55;;;;;;;;;;5115380;27;20402;-70
2022/10/23 12:53:07;;;;;;;6.78;5.10;;;;;;;;;;5100202;27;20122;-72
2022/10/23 12:55:46;;;;;;;8.00;5.50;;;;;;;;;;5101445;27;20027;-70
2022/10/23 12:58:38;;;;;;;12.73;9.00;;;;;;;;;;5102140;27;20081;-72
2022/10/23 13:01:04;;;;;;;8.25;5.90;;;;;;;;;;5119498;27;20454;-73
2022/10/23 13:03:30;;;;;;;7.78;5.60;;;;;;;;;;5120154;27;20032;-70
2022/10/23 13:06:01;;;;;;;7.38;5.45;;;;;;;;;;5115584;27;20114;-72
2022/10/23 13:08:37;;;;;;;7.10;5.32;;;;;;;;;;5098766;28;20508;-71
2022/10/23 13:11:04;;;;;;;8.38;6.20;;;;;;;;;;5119168;27;20055;-71
2022/10/23 13:13:29;;;;;;;7.38;5.25;;;;;;;;;;5118055;27;20026;-72
2022/10/23 13:15:54;;;;;;;8.00;5.67;;;;;;;;;;5117942;27;20019;-70
2022/10/23 13:18:19;;;;;;;8.33;5.40;;;;;;;;;;5114240;27;20271;-72
2022/10/23 13:20:51;;;;;;;7.87;5.23;;;;;;;;;;5114683;27;20271;-71
2022/10/23 13:23:30;;;;;;;6.82;5.07;;;;;;;;;;5119789;27;20446;-72
2022/10/23 13:25:59;;;;;;;7.57;5.00;;;;;;;;;;5117166;27;20488;-72
2022/10/23 13:28:24;;;;;;;7.32;4.97;;;;;;;;;;5116772;27;20039;-72
2022/10/23 13:31:16;;;;;;;6.97;5.43;;;;;;;;;;5121222;27;20023;-72
2022/10/23 13:33:45;;;;;;;7.05;5.55;;;;;;;;;;5120834;27;20810;-71
2022/10/23 13:36:14;;;;;;;10.98;4.93;;;;;;;;;;5119834;27;20118;-71
2022/10/23 13:39:05;;;;;;;8.23;5.15;;;;;;;;;;5103799;27;20489;-72
2022/10/23 13:41:35;;;;;;;6.43;4.70;;;;;;;;;;5117598;27;20114;-72
2022/10/23 13:44:01;;;;;;;6.60;4.50;;;;;;;16.24;nan;101271.03;5115010;27;20031;-72
2022/10/23 13:46:26;;;;;;;7.57;5.03;;;;;;;;;;5115087;27;20035;-72
2022/10/23 13:48:51;;;;;;;7.33;5.87;;;;;;;;;;5122598;27;20549;-72
2022/10/23 13:51:23;;;;;;;8.90;5.60;;;;;;;16.15;nan;101262.63;5117237;27;20278;-72
2022/10/23 13:53:48;;;;;;;7.57;5.18;;;;;;;;;;5112543;27;20029;-72
2022/10/23 13:56:15;;;;;;;8.48;5.88;;;;;;;;;;5118097;27;20039;-72
2022/10/23 13:58:40;;;;;;;6.75;4.93;;;;;;;;;;5100839;27;20593;-73
2022/10/23 14:01:11;;;;;;;6.60;5.10;;;;;;;;;;5107504;27;20110;-74
2022/10/23 14:03:36;;;;;;;6.85;4.82;;;;;;;;;;5118174;27;20031;-73
2022/10/23 14:06:01;;;;;;;11.90;5.07;;;;;;;;;;5121769;27;20034;-73
2022/10/23 14:08:27;;;;;;;7.57;4.63;;;;;;;;;;5098414;28;20039;-73
2022/10/23 14:10:52;;;;;;;7.77;4.83;;;;;;;;;;5127098;27;20076;-73
2022/10/23 14:13:17;;;;;;;6.83;5.17;;;;;;;;;;5120803;27;20058;-73
2022/10/23 14:15:42;;;;;;;6.05;4.70;;;;;;;;;;5118847;27;20023;-73
2022/10/23 14:18:08;;;;;;;7.13;4.67;;;;;;;;;;5101240;27;20372;-73
2022/10/23 14:20:33;;;;;;;7.23;4.53;;;;;;;;;;5105413;27;20348;-74
2022/10/23 14:22:58;;;;;;;10.38;5.10;;;;;;;;;;5090125;27;20559;-72
2022/10/23 14:25:23;;;;;;;8.43;6.10;;;;;;;15.87;nan;101157.25;5107847;27;20035;-73
2022/10/23 14:27:49;;;;;;;7.60;5.28;;;;;;;;;;5119515;27;20027;-74
2022/10/23 14:30:14;;;;;;;9.05;4.75;;;;;;;;;;5102034;27;20180;-75